Altamont, UT

3:40 PM MDT on October 24, 2014 (GMT -0600)
Vernal | Change Station
CLOSE
Current Station
Airport
Location: Vernal,
Elevation: 5276 ft
Nearby Weather Stations
Active Advisory: Special Statement Active Notice: Record Report

Elev 5276 ft 40.44 °N, 109.51 °W | Updated 47 minutes ago

Clear
Clear
67 °F
Feels Like 67 °F
N
4
Wind Variable Wind from Variable

Today
High -- | Low -- °F
--% Chance of Precip.
Yesterday
High -- | Low -- °F
Precip. -- in
7:42 AM 6:28 PM
New Moon, 1% visible
Pressure 30.12 in
Visibility 10.0 miles
Clouds Clear
Dew Point 37 °F
Humidity 33%
Rainfall 0.00 in
Snow Depth 1 in
UV 4 out of 12
Pollen 1.60 out of 12
Air Quality Not available.
Flu Activity Sporadic
METAR KVEL 242053Z AUTO VRB03KT 10SM CLR 19/03 A3022 RMK AO2 SLP198 T01940028 56023

More Conditions Fewer Conditions

Pressure 30.12 in
Visibility 10.0 miles
Clouds Clear
Dew Point 37 °F
Humidity 33%
Rainfall 0.00 in
Snow Depth 1 in
UV 4 out of 12
Pollen 1.60 out of 12
Air Quality Not available.
Flu Activity Sporadic
METAR KVEL 242053Z AUTO VRB03KT 10SM CLR 19/03 A3022 RMK AO2 SLP198 T01940028 56023

More Conditions Fewer Conditions

10-Day Weather Forecast

Almanac

Astronomy

Oct. 24, 2014 Rise Set
Actual Time 7:42 AM MDT 6:28 PM MDT
Civil Twilight 7:14 AM MDT 6:56 PM MDT
Nautical Twilight 6:42 AM MDT 7:28 PM MDT
Astronomical Twilight 6:11 AM MDT 8:00 PM MDT
Moon 8:25 AM MDT 7:11 PM MDT
Length of Visible Light 11h 41m
Length of Day
10h 46m
Tomorrow will be 2m 28s shorter.
New Moon, 1% of the Moon is Illuminated
Today
New Moon
Oct 30
First Quarter
Nov 6
Full
Nov 14
Last Quarter
Nov 22
New

Today's Extremes

State Highs State Lows

Community

WunderPhotos

Upload Photos

1,764,676 photos uploaded!

WunderBlogs® & News

By Dr. Jeff Masters
Director of Meteorology, Weather Underground
By Kari Strenfel
Meteorologist, Weather Underground
By Christopher C. Burt
Weather Historian, Weather Underground
October 24, 2014
October 24, 2014
October 24, 2014

Nearby

Snow Depth

Station Depth Elevation
Lakefork #1 1 in 10100 ft
Trial Lake 1 in 9960 ft
Mosby Mountain 0 in 9500 ft
Daniels-Strawberry 0 in 8000 ft
Smith & Morehouse 0 in 7600 ft

Earthquake Activity

City Distance Mag. Time & Date
Ferron, Utah 111 miles 2.5 10:53 PM MDT
2014-10-21
Minimum magnitude displayed is 2.5.

Coastal Water Temperatures

Place Temperature
No Stations Reporting

Nearby Weather Stations